createdAt,value
2023-04-25T00:00:36.644Z,88.23
2023-04-25T00:03:06.809Z,87.57
2023-04-25T00:05:38.257Z,87.97
2023-04-25T00:08:08.501Z,86.95
2023-04-25T00:10:38.376Z,86.33
2023-04-25T00:13:09.211Z,86.05
2023-04-25T00:15:40.044Z,86.12
2023-04-25T00:18:09.942Z,86.17
2023-04-25T00:20:39.706Z,86.29
2023-04-25T00:23:09.589Z,86.33
2023-04-25T00:25:39.349Z,86.77
2023-04-25T00:28:09.032Z,87.07
2023-04-25T00:30:40.629Z,87.14
2023-04-25T00:33:11.244Z,87.68
2023-04-25T00:35:41.198Z,87.92
2023-04-25T00:38:11.021Z,87.94
2023-04-25T00:40:40.774Z,88.13
2023-04-25T00:43:10.780Z,87.84
2023-04-25T00:45:41.785Z,87.78
2023-04-25T00:48:13.027Z,88.02
2023-04-25T00:50:49.130Z,88.04
2023-04-25T00:53:19.201Z,88.31
2023-04-25T00:55:51.741Z,88.36
2023-04-25T00:58:23.483Z,88.71
2023-04-25T01:00:53.703Z,87.72
2023-04-25T01:03:24.165Z,87.56
2023-04-25T01:05:54.482Z,87.08
2023-04-25T01:08:26.532Z,87.42
2023-04-25T01:10:56.367Z,87.61
2023-04-25T01:13:26.366Z,87.92
2023-04-25T01:15:56.308Z,88.20
2023-04-25T01:18:26.676Z,87.65
2023-04-25T01:20:56.661Z,87.57
2023-04-25T01:23:26.689Z,88.16
2023-04-25T01:25:55.620Z,88.23
2023-04-25T01:28:23.972Z,88.41
2023-04-25T01:30:52.971Z,88.23
2023-04-25T01:33:22.500Z,88.40
2023-04-25T01:35:51.992Z,88.58
2023-04-25T01:38:20.487Z,88.69
2023-04-25T01:40:52.662Z,88.62
2023-04-25T01:43:23.057Z,88.18
2023-04-25T01:45:53.356Z,88.77
2023-04-25T01:48:23.473Z,88.91
2023-04-25T01:50:53.262Z,89.35
2023-04-25T01:53:23.702Z,89.30
2023-04-25T01:55:53.518Z,89.47
2023-04-25T01:58:23.260Z,89.47
2023-04-25T02:00:53.039Z,89.62
2023-04-25T02:03:23.183Z,89.48
2023-04-25T02:05:53.271Z,90.01
2023-04-25T02:08:23.120Z,90.24
2023-04-25T02:10:53.197Z,90.42
2023-04-25T02:13:22.945Z,90.65
2023-04-25T02:15:52.754Z,90.35
2023-04-25T02:18:22.686Z,90.10
2023-04-25T02:20:52.571Z,90.18
2023-04-25T02:23:22.383Z,90.45
2023-04-25T02:25:53.914Z,90.78
2023-04-25T02:28:26.832Z,90.94
2023-04-25T02:30:56.661Z,91.08
2023-04-25T02:33:26.561Z,90.78
2023-04-25T02:35:56.340Z,90.26
2023-04-25T02:38:26.336Z,90.90
2023-04-25T02:40:56.408Z,91.16
2023-04-25T02:43:24.517Z,91.50
2023-04-25T02:45:53.019Z,91.57
2023-04-25T02:48:21.380Z,91.13
2023-04-25T02:50:49.926Z,91.28
2023-04-25T02:53:18.397Z,91.45
2023-04-25T02:55:46.738Z,91.06
2023-04-25T02:58:16.517Z,90.76
2023-04-25T03:00:43.613Z,90.74
2023-04-25T03:03:12.327Z,90.78
2023-04-25T03:05:40.536Z,90.50
2023-04-25T03:08:08.925Z,90.34
2023-04-25T03:10:37.199Z,90.14
2023-04-25T03:13:05.731Z,90.00
2023-04-25T03:15:34.154Z,90.49
2023-04-25T03:18:03.383Z,90.64
2023-04-25T03:20:31.197Z,90.78
2023-04-25T03:22:59.422Z,90.61
2023-04-25T03:25:28.027Z,90.78
2023-04-25T03:27:56.459Z,90.72
2023-04-25T03:30:24.960Z,91.45
2023-04-25T03:32:53.451Z,91.43
2023-04-25T03:35:21.855Z,91.15
2023-04-25T03:37:50.529Z,90.99
2023-04-25T03:40:18.647Z,90.98
2023-04-25T03:42:47.022Z,91.29
2023-04-25T03:45:15.630Z,91.36
2023-04-25T03:47:43.897Z,91.14
2023-04-25T03:50:12.479Z,90.63
2023-04-25T03:52:40.806Z,90.62
2023-04-25T03:55:10.270Z,90.65
2023-04-25T03:57:37.652Z,90.46
2023-04-25T04:00:07.630Z,90.12
2023-04-25T04:02:35.916Z,90.29
2023-04-25T04:05:04.817Z,91.01
2023-04-25T04:07:36.615Z,91.19
2023-04-25T04:10:08.624Z,90.96
2023-04-25T04:12:39.280Z,90.44
2023-04-25T04:15:10.791Z,90.66
2023-04-25T04:17:42.215Z,91.27
2023-04-25T04:20:12.088Z,91.33
2023-04-25T04:22:41.992Z,90.93
2023-04-25T04:25:13.686Z,91.36
2023-04-25T04:27:45.600Z,91.31
2023-04-25T04:30:16.019Z,91.41
2023-04-25T04:32:45.868Z,91.66
2023-04-25T04:35:15.780Z,92.31
2023-04-25T04:37:46.763Z,92.03
2023-04-25T04:40:17.203Z,92.16
2023-04-25T04:42:47.017Z,91.71
2023-04-25T04:45:17.114Z,92.09
2023-04-25T04:47:47.044Z,91.92
2023-04-25T04:50:17.408Z,91.70
2023-04-25T04:52:47.260Z,92.12
2023-04-25T04:55:17.099Z,92.20
2023-04-25T04:57:46.935Z,91.09
2023-04-25T05:00:17.123Z,90.93
2023-04-25T05:02:47.134Z,91.05
2023-04-25T05:05:17.339Z,90.59
2023-04-25T05:07:47.206Z,90.97
2023-04-25T05:10:21.627Z,90.68
2023-04-25T05:12:51.334Z,90.60
2023-04-25T05:15:21.269Z,90.43
2023-04-25T05:17:51.375Z,90.46
2023-04-25T05:20:21.304Z,90.34
2023-04-25T05:22:51.187Z,90.11
2023-04-25T05:25:21.259Z,90.17
2023-04-25T05:27:53.488Z,89.65
2023-04-25T05:30:23.307Z,90.25
2023-04-25T05:32:53.765Z,89.79
2023-04-25T05:35:23.871Z,89.69
2023-04-25T05:37:54.146Z,89.77
2023-04-25T05:40:23.899Z,90.35
2023-04-25T05:42:53.980Z,90.00
2023-04-25T05:45:24.278Z,89.88
2023-04-25T05:47:54.914Z,89.79
2023-04-25T05:50:24.837Z,89.63
2023-04-25T05:52:55.195Z,89.71
2023-04-25T05:55:24.978Z,89.93
2023-04-25T05:57:55.219Z,89.34
2023-04-25T06:00:25.694Z,89.66
2023-04-25T06:02:53.584Z,89.83
2023-04-25T06:05:22.184Z,89.99
2023-04-25T06:07:50.682Z,89.61
2023-04-25T06:10:19.422Z,89.70
2023-04-25T06:12:47.126Z,89.75
2023-04-25T06:15:28.076Z,89.68
2023-04-25T06:17:58.716Z,89.63
2023-04-25T06:20:28.878Z,89.39
2023-04-25T06:22:58.879Z,89.47
2023-04-25T06:25:28.840Z,89.61
2023-04-25T06:27:58.667Z,88.78
2023-04-25T06:30:28.697Z,88.57
2023-04-25T06:32:58.868Z,89.03
2023-04-25T06:35:28.883Z,89.19
2023-04-25T06:37:58.969Z,88.90
2023-04-25T06:40:28.819Z,89.11
2023-04-25T06:42:59.185Z,89.27
2023-04-25T06:45:28.925Z,88.83
2023-04-25T06:47:58.708Z,88.50
2023-04-25T06:50:28.949Z,88.13
2023-04-25T06:52:58.662Z,88.40
2023-04-25T06:55:28.435Z,88.04
2023-04-25T06:57:58.148Z,88.41
2023-04-25T07:00:29.452Z,89.20
2023-04-25T07:02:59.381Z,88.57
2023-04-25T07:05:29.620Z,88.77
2023-04-25T07:07:58.603Z,88.68
2023-04-25T07:10:26.842Z,88.60
2023-04-25T07:12:54.960Z,88.76
2023-04-25T07:15:23.438Z,88.47
2023-04-25T07:17:52.554Z,88.24
2023-04-25T07:20:20.323Z,89.32
2023-04-25T07:22:48.960Z,89.23
2023-04-25T07:25:18.222Z,90.26
2023-04-25T07:27:45.582Z,90.64
2023-04-25T07:30:14.668Z,90.61
2023-04-25T07:32:42.530Z,91.25
2023-04-25T07:35:10.946Z,92.20
2023-04-25T07:37:39.530Z,93.65
2023-04-25T07:40:10.070Z,95.27
2023-04-25T07:42:39.173Z,96.07
2023-04-25T07:45:08.755Z,94.68
2023-04-25T07:47:37.220Z,93.37
2023-04-25T07:50:05.275Z,93.28
2023-04-25T07:52:33.042Z,93.34
2023-04-25T07:55:01.535Z,93.25
2023-04-25T07:57:31.800Z,92.22
2023-04-25T08:00:01.555Z,91.07
2023-04-25T08:02:31.417Z,91.05
2023-04-25T08:05:01.528Z,91.61
2023-04-25T08:07:31.581Z,91.22
2023-04-25T08:10:01.338Z,92.00
2023-04-25T08:12:29.944Z,91.83
2023-04-25T08:14:58.445Z,90.65
2023-04-25T08:17:26.779Z,89.37
2023-04-25T08:19:56.440Z,89.19
2023-04-25T08:22:24.156Z,87.30
2023-04-25T08:24:52.146Z,87.50
2023-04-25T08:27:22.515Z,86.60
2023-04-25T08:29:52.452Z,87.49
2023-04-25T08:32:20.808Z,88.38
2023-04-25T08:34:49.083Z,88.51
2023-04-25T08:37:17.446Z,87.93
2023-04-25T08:39:46.333Z,85.40
2023-04-25T08:42:16.884Z,84.34
2023-04-25T08:44:49.069Z,83.97
2023-04-25T08:47:24.345Z,81.48
2023-04-25T08:49:56.017Z,76.77
2023-04-25T08:52:33.728Z,74.18
2023-04-25T08:55:05.532Z,73.63
2023-04-25T08:57:36.466Z,71.08
2023-04-25T09:00:06.360Z,68.61
2023-04-25T09:02:34.666Z,66.79
2023-04-25T09:05:05.299Z,65.79
2023-04-25T09:07:35.056Z,63.77
2023-04-25T09:10:05.481Z,63.54
2023-04-25T09:12:37.025Z,64.15
2023-04-25T09:15:20.433Z,64.56
2023-04-25T09:17:58.427Z,65.60
2023-04-25T09:20:30.290Z,63.32
2023-04-25T09:23:07.955Z,63.41
2023-04-25T09:25:40.105Z,61.78
2023-04-25T09:28:09.116Z,58.24
2023-04-25T09:30:38.033Z,58.36
2023-04-25T09:33:12.082Z,58.14
2023-04-25T09:35:46.099Z,55.63
2023-04-25T09:38:19.198Z,56.59
2023-04-25T09:40:50.739Z,58.11
2023-04-25T09:43:23.003Z,58.96
2023-04-25T09:46:00.073Z,56.85
2023-04-25T09:48:30.742Z,57.51
2023-04-25T09:51:15.137Z,57.61
2023-04-25T09:53:51.755Z,57.74
2023-04-25T09:56:24.449Z,57.94
2023-04-25T09:58:56.079Z,58.39
2023-04-25T10:01:27.644Z,57.95
2023-04-25T10:03:59.829Z,58.80
2023-04-25T10:06:31.917Z,59.40
2023-04-25T10:09:04.893Z,60.29
2023-04-25T10:11:36.424Z,57.79
2023-04-25T10:14:07.209Z,56.59
2023-04-25T10:16:38.537Z,56.04
2023-04-25T10:19:08.753Z,56.98
2023-04-25T10:21:59.233Z,57.78
2023-04-25T10:24:29.358Z,57.83
2023-04-25T10:27:00.302Z,57.11
2023-04-25T10:29:30.295Z,56.96
2023-04-25T10:32:00.547Z,57.33
2023-04-25T10:35:24.778Z,56.78
2023-04-25T10:38:06.099Z,56.19
2023-04-25T10:40:34.657Z,56.63
2023-04-25T10:43:32.104Z,54.49
2023-04-25T10:46:02.640Z,54.08
2023-04-25T10:48:32.991Z,53.50
2023-04-25T10:51:26.517Z,53.15
2023-04-25T10:53:56.415Z,53.07
2023-04-25T10:56:37.215Z,54.18
2023-04-25T10:59:19.560Z,54.22
2023-04-25T11:01:56.675Z,54.56
2023-04-25T11:04:37.705Z,53.96
2023-04-25T11:08:00.113Z,53.66
2023-04-25T11:10:36.756Z,52.96
2023-04-25T11:13:05.887Z,53.99
2023-04-25T11:15:33.530Z,52.93
2023-04-25T11:18:02.891Z,53.84
2023-04-25T11:20:30.611Z,53.10
2023-04-25T11:23:01.150Z,53.10
2023-04-25T11:25:31.432Z,53.91
2023-04-25T11:28:02.199Z,54.18
2023-04-25T11:30:32.152Z,54.31
2023-04-25T11:33:03.850Z,54.60
2023-04-25T11:35:34.613Z,55.14
2023-04-25T11:38:05.667Z,54.79
2023-04-25T11:40:37.193Z,56.01
2023-04-25T11:43:08.049Z,57.19
2023-04-25T11:45:38.446Z,55.97
2023-04-25T11:48:08.416Z,55.03
2023-04-25T11:50:41.204Z,54.68
2023-04-25T11:53:11.828Z,55.26
2023-04-25T11:55:41.667Z,52.62
2023-04-25T11:58:11.740Z,52.23
2023-04-25T12:00:50.220Z,52.49
2023-04-25T12:03:21.491Z,51.04
2023-04-25T12:05:51.569Z,51.74
2023-04-25T12:08:21.954Z,51.03
2023-04-25T12:10:51.867Z,50.73
2023-04-25T12:13:29.070Z,50.46
2023-04-25T12:15:59.006Z,51.30
2023-04-25T12:18:29.134Z,52.02
2023-04-25T12:20:59.315Z,52.12
2023-04-25T12:23:31.356Z,52.51
2023-04-25T12:26:03.771Z,52.05
2023-04-25T12:28:34.242Z,52.00
2023-04-25T12:31:07.140Z,52.00
2023-04-25T12:33:38.562Z,51.61
2023-04-25T12:36:13.297Z,51.39
2023-04-25T12:38:43.840Z,49.41
2023-04-25T12:41:13.661Z,49.34
2023-04-25T12:43:43.540Z,49.27
2023-04-25T12:46:13.454Z,49.35
2023-04-25T12:48:43.487Z,49.45
2023-04-25T12:51:13.303Z,47.73
2023-04-25T12:53:43.122Z,47.19
2023-04-25T12:56:12.918Z,47.43
2023-04-25T12:58:45.157Z,48.49
2023-04-25T13:01:15.855Z,48.70
2023-04-25T13:03:45.987Z,49.68
2023-04-25T13:06:17.612Z,50.70
2023-04-25T13:08:47.789Z,50.83
2023-04-25T13:11:17.665Z,51.02
2023-04-25T13:13:47.392Z,50.66
2023-04-25T13:16:17.535Z,49.37
2023-04-25T13:18:45.646Z,50.44
2023-04-25T13:21:14.432Z,50.67
2023-04-25T13:23:44.016Z,50.76
2023-04-25T13:26:11.319Z,50.44
2023-04-25T13:28:39.368Z,50.22
2023-04-25T13:31:07.981Z,50.19
2023-04-25T13:33:36.266Z,50.20
2023-04-25T13:36:04.913Z,49.23
2023-04-25T13:38:33.061Z,47.63
2023-04-25T13:41:02.003Z,47.37
2023-04-25T13:43:29.829Z,47.58
2023-04-25T13:45:58.348Z,48.46
2023-04-25T13:48:26.806Z,47.24
2023-04-25T13:50:55.057Z,48.50
2023-04-25T13:53:23.679Z,48.61
2023-04-25T13:55:52.094Z,48.54
2023-04-25T13:58:21.407Z,49.48
2023-04-25T14:00:49.053Z,48.50
2023-04-25T14:03:17.389Z,49.78
2023-04-25T14:05:45.792Z,50.83
2023-04-25T14:08:14.028Z,50.00
2023-04-25T14:10:42.385Z,50.99
2023-04-25T14:13:11.170Z,51.77
2023-04-25T14:15:39.440Z,51.95
2023-04-25T14:18:08.187Z,52.43
2023-04-25T14:20:36.616Z,52.72
2023-04-25T14:23:04.746Z,53.75
2023-04-25T14:25:33.210Z,54.87
2023-04-25T14:28:01.961Z,54.71
2023-04-25T14:30:29.975Z,55.91
2023-04-25T14:32:58.313Z,54.93
2023-04-25T14:35:26.784Z,55.06
2023-04-25T14:37:55.438Z,55.94
2023-04-25T14:40:24.073Z,55.48
2023-04-25T14:42:52.781Z,55.60
2023-04-25T14:45:20.700Z,56.07
2023-04-25T14:47:49.132Z,55.79
2023-04-25T14:50:17.608Z,55.67
2023-04-25T14:52:46.245Z,55.79
2023-04-25T14:55:14.173Z,56.46
2023-04-25T14:57:43.369Z,57.28
2023-04-25T15:00:14.562Z,55.48
2023-04-25T15:02:42.915Z,54.91
2023-04-25T15:05:11.184Z,54.94
2023-04-25T15:07:40.488Z,55.25
2023-04-25T15:10:14.500Z,56.22
2023-04-25T15:12:47.394Z,55.31
2023-04-25T15:15:26.064Z,55.10
2023-04-25T15:17:59.434Z,55.60
2023-04-25T15:20:29.457Z,55.80
2023-04-25T15:22:59.699Z,56.75
2023-04-25T15:25:29.496Z,56.80
2023-04-25T15:27:56.465Z,57.49
2023-04-25T15:30:25.002Z,58.36
2023-04-25T15:32:53.381Z,57.42
2023-04-25T15:35:21.820Z,57.61
2023-04-25T15:37:51.596Z,58.47
2023-04-25T15:40:18.753Z,58.34
2023-04-25T15:42:53.864Z,58.39
2023-04-25T15:45:26.382Z,57.87
2023-04-25T15:47:57.301Z,56.97
2023-04-25T15:50:27.257Z,56.17
2023-04-25T15:52:58.017Z,55.54
2023-04-25T15:55:28.574Z,55.63
2023-04-25T15:57:58.384Z,55.86
2023-04-25T16:00:28.724Z,56.36
2023-04-25T16:02:58.868Z,56.92
2023-04-25T16:05:28.886Z,57.45
2023-04-25T16:07:58.836Z,57.93
2023-04-25T16:10:28.676Z,57.40
2023-04-25T16:12:58.793Z,57.75
2023-04-25T16:15:29.000Z,56.32
2023-04-25T16:17:58.810Z,57.47
2023-04-25T16:20:29.027Z,57.65
2023-04-25T16:22:59.405Z,56.90
2023-04-25T16:25:29.297Z,56.71
2023-04-25T16:27:59.126Z,57.19
2023-04-25T16:30:28.933Z,57.54
2023-04-25T16:32:59.019Z,57.98
2023-04-25T16:35:32.354Z,57.79
2023-04-25T16:38:02.904Z,58.41
2023-04-25T16:40:32.665Z,58.73
2023-04-25T16:43:02.459Z,59.13
2023-04-25T16:45:32.248Z,59.36
2023-04-25T16:48:02.076Z,60.56
2023-04-25T16:50:32.253Z,60.58
2023-04-25T16:53:02.037Z,61.19
2023-04-25T16:55:32.643Z,61.96
2023-04-25T16:58:00.279Z,62.49
2023-04-25T17:00:28.732Z,62.65
2023-04-25T17:02:57.150Z,62.72
2023-04-25T17:05:26.339Z,62.94
2023-04-25T17:07:53.916Z,63.90
2023-04-25T17:10:23.401Z,64.18
2023-04-25T17:12:51.073Z,63.22
2023-04-25T17:15:19.814Z,62.12
2023-04-25T17:17:47.855Z,61.03
2023-04-25T17:20:16.119Z,60.74
2023-04-25T17:22:44.965Z,61.07
2023-04-25T17:25:12.827Z,61.24
2023-04-25T17:27:41.396Z,60.53
2023-04-25T17:30:10.389Z,60.03
2023-04-25T17:32:38.939Z,60.14
2023-04-25T17:35:07.307Z,60.41
2023-04-25T17:37:35.384Z,59.55
2023-04-25T17:40:05.059Z,59.88
2023-04-25T17:42:32.193Z,60.46
2023-04-25T17:45:00.548Z,60.93
2023-04-25T17:47:28.848Z,61.49
2023-04-25T17:49:57.566Z,61.97
2023-04-25T17:52:26.431Z,62.21
2023-04-25T17:54:54.110Z,62.62
2023-04-25T17:57:24.311Z,62.98
2023-04-25T17:59:56.245Z,62.77
2023-04-25T18:02:27.180Z,63.41
2023-04-25T18:04:57.541Z,63.92
2023-04-25T18:07:27.477Z,64.07
2023-04-25T18:09:57.278Z,64.63
2023-04-25T18:12:28.136Z,65.34
2023-04-25T18:14:58.035Z,65.64
2023-04-25T18:17:28.208Z,65.57
2023-04-25T18:19:57.966Z,66.16
2023-04-25T18:22:28.931Z,65.94
2023-04-25T18:24:58.914Z,65.97
2023-04-25T18:27:28.637Z,66.07
2023-04-25T18:29:58.497Z,66.45
2023-04-25T18:32:28.603Z,66.70
2023-04-25T18:34:59.084Z,66.18
2023-04-25T18:37:28.882Z,66.51
2023-04-25T18:39:59.355Z,66.97
2023-04-25T18:42:29.148Z,67.40
2023-04-25T18:44:59.275Z,68.38
2023-04-25T18:47:29.029Z,68.13
2023-04-25T18:49:58.842Z,68.04
2023-04-25T18:52:28.667Z,68.87
2023-04-25T18:54:58.486Z,69.03
2023-04-25T18:57:28.327Z,68.86
2023-04-25T18:59:58.992Z,68.87
2023-04-25T19:02:28.833Z,69.75
2023-04-25T19:04:57.455Z,70.56
2023-04-25T19:07:28.140Z,71.71
2023-04-25T19:09:57.430Z,72.28
2023-04-25T19:12:24.247Z,72.07
2023-04-25T19:14:53.336Z,70.63
2023-04-25T19:17:21.810Z,69.39
2023-04-25T19:19:50.022Z,68.49
2023-04-25T19:22:18.295Z,67.81
2023-04-25T19:24:50.534Z,68.48
2023-04-25T19:27:25.595Z,68.34
2023-04-25T19:29:59.619Z,68.73
2023-04-25T19:32:29.500Z,69.37
2023-04-25T19:34:59.337Z,69.74
2023-04-25T19:37:29.183Z,69.60
2023-04-25T19:39:59.032Z,70.02
2023-04-25T19:42:28.816Z,70.03
2023-04-25T19:44:59.354Z,70.27
2023-04-25T19:47:29.100Z,70.08
2023-04-25T19:49:58.943Z,69.78
2023-04-25T19:52:28.684Z,69.90
2023-04-25T19:55:02.303Z,70.54
2023-04-25T19:57:33.024Z,71.22
2023-04-25T20:00:12.879Z,71.15
2023-04-25T20:02:45.500Z,71.04
2023-04-25T20:05:17.841Z,71.24
2023-04-25T20:07:45.419Z,71.43
2023-04-25T20:10:16.382Z,71.68
2023-04-25T20:12:45.515Z,71.63
2023-04-25T20:15:18.670Z,71.77
2023-04-25T20:17:47.185Z,72.37
2023-04-25T20:20:17.683Z,72.47
2023-04-25T20:22:47.494Z,72.79
2023-04-25T20:25:17.677Z,73.61
2023-04-25T20:27:47.656Z,74.09
2023-04-25T20:30:18.548Z,74.94
2023-04-25T20:32:47.748Z,75.31
2023-04-25T20:35:17.811Z,75.98
2023-04-25T20:37:47.934Z,75.90
2023-04-25T20:40:17.479Z,76.23
2023-04-25T20:42:47.368Z,76.72
2023-04-25T20:45:17.959Z,77.10
2023-04-25T20:47:47.435Z,77.88
2023-04-25T20:50:17.499Z,78.51
2023-04-25T20:52:47.520Z,79.20
2023-04-25T20:55:17.525Z,79.97
2023-04-25T20:57:47.302Z,80.84
2023-04-25T21:00:18.421Z,81.61
2023-04-25T21:02:47.478Z,82.27
2023-04-25T21:05:15.809Z,82.53
2023-04-25T21:07:45.653Z,82.79
2023-04-25T21:10:17.304Z,82.85
2023-04-25T21:12:49.580Z,82.76
2023-04-25T21:15:21.508Z,82.83
2023-04-25T21:17:52.187Z,82.82
2023-04-25T21:20:22.100Z,83.13
2023-04-25T21:22:54.193Z,83.17
2023-04-25T21:25:29.237Z,83.23
2023-04-25T21:28:00.393Z,83.14
2023-04-25T21:30:30.954Z,82.68
2023-04-25T21:33:00.784Z,82.28
2023-04-25T21:35:30.579Z,82.09
2023-04-25T21:38:00.495Z,82.07
2023-04-25T21:40:30.614Z,82.06
2023-04-25T21:43:01.155Z,82.40
2023-04-25T21:45:31.729Z,82.28
2023-04-25T21:48:01.872Z,82.67
2023-04-25T21:50:31.812Z,82.85
2023-04-25T21:53:02.056Z,83.15
2023-04-25T21:55:31.954Z,83.33
2023-04-25T21:58:01.651Z,83.83
2023-04-25T22:00:31.872Z,84.40
2023-04-25T22:03:01.817Z,84.74
2023-04-25T22:05:30.135Z,85.22
2023-04-25T22:07:58.744Z,85.45
2023-04-25T22:10:26.853Z,84.30
2023-04-25T22:12:56.003Z,83.73
2023-04-25T22:15:24.137Z,83.47
2023-04-25T22:17:56.401Z,82.72
2023-04-25T22:20:26.697Z,80.81
2023-04-25T22:22:56.732Z,79.32
2023-04-25T22:25:26.764Z,78.34
2023-04-25T22:27:57.272Z,77.82
2023-04-25T22:30:28.272Z,77.43
2023-04-25T22:32:57.981Z,76.39
2023-04-25T22:35:27.833Z,76.35
2023-04-25T22:37:57.742Z,76.39
2023-04-25T22:40:27.720Z,76.77
2023-04-25T22:42:57.876Z,77.31
2023-04-25T22:45:27.920Z,78.26
2023-04-25T22:47:58.698Z,78.51
2023-04-25T22:50:28.406Z,78.56
2023-04-25T22:52:58.306Z,79.32
2023-04-25T22:55:28.218Z,80.10
2023-04-25T22:57:56.896Z,80.59
2023-04-25T23:00:26.293Z,81.35
2023-04-25T23:02:54.029Z,82.60
2023-04-25T23:05:24.633Z,83.32
2023-04-25T23:07:53.466Z,83.25
2023-04-25T23:10:22.509Z,82.18
2023-04-25T23:12:50.792Z,81.73
2023-04-25T23:15:19.758Z,82.19
2023-04-25T23:17:47.148Z,82.94
2023-04-25T23:20:15.745Z,83.11
2023-04-25T23:22:44.018Z,83.57
2023-04-25T23:25:12.760Z,83.55
2023-04-25T23:27:41.658Z,83.56
2023-04-25T23:30:10.604Z,83.63
2023-04-25T23:32:40.461Z,83.73
2023-04-25T23:35:11.467Z,84.22
2023-04-25T23:37:40.745Z,84.44
2023-04-25T23:40:14.260Z,84.01
2023-04-25T23:42:44.021Z,84.12
2023-04-25T23:45:16.067Z,84.59
2023-04-25T23:47:45.893Z,84.72
2023-04-25T23:50:15.886Z,85.35
2023-04-25T23:52:45.837Z,85.40
2023-04-25T23:55:15.734Z,85.59
2023-04-25T23:57:45.683Z,85.94
